Cloverdale, OH (45827)

1:53 AM EST on March 01, 2015 (GMT -0500)
Kalida Local Schools | Change Station
CLOSE
Current Station
Personal Weather Station
Location: Kalida, OH
Elevation: 725 ft
Nearby Weather Stations
Active Advisory: Winter Weather Advisory Active Notice: Record Report

Elev 725 ft 40.98 °N, 84.20 °W | Updated 7 minutes ago

Overcast
Overcast
17.6 °F
Feels Like 11 °F
N
4.0
Wind Variable Wind from East

Today
High -- | Low -- °F
--% Chance of Precip.
Yesterday
High -- | Low -- °F
Precip. -- in
7:11 AM 6:27 PM
Waxing Gibbous, 83% visible
Pressure 30.53 in
Visibility 1.2 miles
Clouds Overcast 2000 ft
Windchill 11 °F
Dew Point 16 °F
Humidity 91%
Rainfall 0.00 in
Snow Depth Not available.
UV 0 out of 12
Pollen .30 out of 12
Air Quality Not available.
Flu Activity Not available.
METAR KDFI 010553Z AUTO 09005KT 1 1/4SM -SN BR OVC020 M09/M11 A3048 RMK AO2 SLP336 P0002 60006 T10891106 11078 21089 58028

More Conditions Fewer Conditions

Pressure 30.53 in
Visibility 1.2 miles
Clouds Overcast 2000 ft
Windchill 11 °F
Dew Point 16 °F
Humidity 91%
Rainfall 0.00 in
Snow Depth Not available.
UV 0 out of 12
Pollen .30 out of 12
Air Quality Not available.
Flu Activity Not available.
METAR KDFI 010553Z AUTO 09005KT 1 1/4SM -SN BR OVC020 M09/M11 A3048 RMK AO2 SLP336 P0002 60006 T10891106 11078 21089 58028

More Conditions Fewer Conditions

10-Day Weather Forecast

Almanac

Astronomy

Mar. 01, 2015 Rise Set
Actual Time
Civil Twilight
Nautical Twilight
Astronomical Twilight
Moon
Length of Visible Light
Length of Day
Tomorrow will be .
, % of the Moon is Illuminated

Today's Extremes

State Highs State Lows

Community

WunderPhotos

Upload Photos

1,801,345 photos uploaded!

WunderBlogs® & News

Nearby

Air Quality

  Air Quality AQ Index Pollutant
Not available.

Snow Depth

Station Depth Elevation

Earthquake Activity

City Distance Mag. Time & Date
Minimum magnitude displayed is 2.5.

Coastal Water Temperatures

Place Temperature

Nearby Weather Stations

Winter Weather Advisory
Statement as of 1:49 AM EST on March 01, 2015

... Winter Weather Advisory remains in effect until 7 PM EST this
evening...

Hazardous weather...

* snow will continue today with total accumulations of 4 to 6
   inches by this evening.

Impacts...

* snow covered roads will result in hazardous driving
   conditions.

Precautionary/preparedness actions...

A Winter Weather Advisory for snow means that periods of snow
will cause primarily travel difficulties. Be prepared for snow
covered roads and limited visibilities... and use caution while
driving.